Terminal Aerodrome Forecast
Issued by NWS Grand Junction, CO

Home | Current Version | Previous Version | Text Only | Print | Product List | Glossary On
Versions: 1 2 3 4 5 6 7 8 9 10 11 12 13 14 15 16 17 18 19 20 21 22 23 24 25 26 27 28 29 30 31 32 33 34
567
FTUS45 KGJT 212328
TAFGJT
TAF
KGJT 212328Z 2200/2224 29008KT P6SM SCT140 BKN250
     FM220200 12010KT P6SM SCT120 BKN200
     FM220900 11010KT P6SM SCT250
     FM221600 14015KT P6SM FEW120 SCT250=

USA.gov is the U.S. government's official web portal to all federal, state and local government web resources and services.